Time,TemperatureF,DewpointF,PressureIn,WindDirection,WindDirectionDegrees,WindSpeedMPH,WindSpeedGustMPH,Humidity,HourlyPrecipIn,Conditions,Clouds,dailyrainin,SolarRadiationWatts/m^2,SoftwareType,DateUTC
2013-08-01 00:03:00,65.8,46.0,30.07,WSW,248,0.0,-999.0,50,-99.99,,,0.00,0,weatherlink.com 1.10,2013-08-01 06:03:00,
2013-08-01 00:18:00,65.7,46.0,30.07,WSW,248,0.0,-999.0,49,-99.99,,,0.00,0,weatherlink.com 1.10,2013-08-01 06:18:00,
2013-08-01 00:33:00,65.8,46.0,30.08,West,267,4.0,-999.0,49,-99.99,,,0.00,0,weatherlink.com 1.10,2013-08-01 06:33:00,
2013-08-01 00:48:00,65.3,46.0,30.07,West,267,0.0,-999.0,50,-99.99,,,0.00,0,weatherlink.com 1.10,2013-08-01 06:48:00,
2013-08-01 01:03:00,65.0,46.0,30.07,West,270,2.0,-999.0,51,-99.99,,,0.00,0,weatherlink.com 1.10,2013-08-01 07:03:00,
2013-08-01 01:18:00,64.5,46.0,30.07,West,274,2.0,-999.0,51,-99.99,,,0.00,0,weatherlink.com 1.10,2013-08-01 07:18:00,
2013-08-01 01:33:00,62.9,45.0,30.06,NNE,20,0.0,-999.0,53,-99.99,,,0.00,0,weatherlink.com 1.10,2013-08-01 07:33:00,
2013-08-01 01:48:00,62.1,45.0,30.06,NNE,27,0.0,-999.0,54,-99.99,,,0.00,0,weatherlink.com 1.10,2013-08-01 07:48:00,
2013-08-01 02:03:00,62.1,45.0,30.05,NNE,27,0.0,-999.0,54,-99.99,,,0.00,0,weatherlink.com 1.10,2013-08-01 08:03:00,
2013-08-01 02:18:00,61.9,46.0,30.05,North,355,3.0,-999.0,56,-99.99,,,0.00,0,weatherlink.com 1.10,2013-08-01 08:18:00,
2013-08-01 02:33:00,61.7,46.0,30.04,North,355,0.0,-999.0,56,-99.99,,,0.00,0,weatherlink.com 1.10,2013-08-01 08:33:00,
2013-08-01 03:03:00,58.6,45.0,30.04,NNE,13,3.0,-999.0,61,-99.99,,,0.00,0,weatherlink.com 1.10,2013-08-01 09:03:00,
2013-08-01 03:18:00,57.6,46.0,30.03,ENE,61,0.0,-999.0,65,-99.99,,,0.00,0,weatherlink.com 1.10,2013-08-01 09:18:00,
2013-08-01 03:48:00,58.6,46.0,30.03,ENE,63,0.0,-999.0,63,-99.99,,,0.00,0,weatherlink.com 1.10,2013-08-01 09:48:00,
2013-08-01 04:18:00,57.1,46.0,30.02,NE,44,4.0,-999.0,67,-99.99,,,0.00,0,weatherlink.com 1.10,2013-08-01 10:18:00,
2013-08-01 04:33:00,55.9,46.0,30.02,NE,36,3.0,-999.0,69,-99.99,,,0.00,0,weatherlink.com 1.10,2013-08-01 10:33:00,
2013-08-01 04:48:00,55.0,46.0,30.02,NE,42,5.0,-999.0,72,-99.99,,,0.00,0,weatherlink.com 1.10,2013-08-01 10:48:00,
2013-08-01 05:03:00,54.7,46.0,30.02,NNW,327,0.0,-999.0,72,-99.99,,,0.00,0,weatherlink.com 1.10,2013-08-01 11:03:00,
2013-08-01 05:18:00,54.8,46.0,30.03,NNW,338,0.0,-999.0,72,-99.99,,,0.00,0,weatherlink.com 1.10,2013-08-01 11:18:00,
2013-08-01 05:33:00,55.3,45.0,30.02,NW,312,0.0,-999.0,69,-99.99,,,0.00,0,weatherlink.com 1.10,2013-08-01 11:33:00,
2013-08-01 05:48:00,55.7,45.0,30.02,North,349,0.0,-999.0,68,-99.99,,,0.00,0,weatherlink.com 1.10,2013-08-01 11:48:00,
2013-08-01 06:03:00,53.7,44.0,30.03,NNE,16,2.0,-999.0,71,-99.99,,,0.00,0,weatherlink.com 1.10,2013-08-01 12:03:00,
2013-08-01 06:18:00,53.7,45.0,30.03,NNE,21,4.0,-999.0,72,-99.99,,,0.00,11,weatherlink.com 1.10,2013-08-01 12:18:00,
2013-08-01 06:49:00,55.3,46.0,30.03,North,360,0.0,-999.0,70,-99.99,,,0.00,49,weatherlink.com 1.10,2013-08-01 12:49:00,
2013-08-01 07:19:00,57.4,46.0,30.03,NNE,12,0.0,-999.0,67,-99.99,,,0.00,142,weatherlink.com 1.10,2013-08-01 13:19:00,
2013-08-01 07:49:00,60.2,48.0,30.03,NNW,332,0.0,-999.0,64,-99.99,,,0.00,237,weatherlink.com 1.10,2013-08-01 13:49:00,
2013-08-01 08:34:00,63.0,48.0,30.02,SW,221,0.0,-999.0,58,-99.99,,,0.00,380,weatherlink.com 1.10,2013-08-01 14:34:00,
2013-08-01 08:49:00,65.5,48.0,30.03,SW,221,0.0,-999.0,54,-99.99,,,0.00,425,weatherlink.com 1.10,2013-08-01 14:49:00,
2013-08-01 09:04:00,66.2,49.0,30.02,SSW,213,0.0,-999.0,55,-99.99,,,0.00,471,weatherlink.com 1.10,2013-08-01 15:04:00,
2013-08-01 09:49:00,69.5,49.0,30.00,South,173,0.0,-999.0,48,-99.99,,,0.00,603,weatherlink.com 1.10,2013-08-01 15:49:00,
2013-08-01 10:04:00,70.1,48.0,30.00,SW,235,6.0,-999.0,46,-99.99,,,0.00,642,weatherlink.com 1.10,2013-08-01 16:04:00,
2013-08-01 10:20:00,70.9,47.0,29.99,South,173,0.0,-999.0,43,-99.99,,,0.00,689,weatherlink.com 1.10,2013-08-01 16:20:00,
2013-08-01 10:50:00,73.3,47.0,29.97,ESE,109,0.0,-999.0,40,-99.99,,,0.00,262,weatherlink.com 1.10,2013-08-01 16:50:00,
2013-08-01 11:20:00,75.1,48.0,29.95,SSE,163,0.0,-999.0,38,-99.99,,,0.00,809,weatherlink.com 1.10,2013-08-01 17:20:00,
2013-08-01 11:35:00,75.5,47.0,29.95,ESE,117,6.0,-999.0,37,-99.99,,,0.00,835,weatherlink.com 1.10,2013-08-01 17:35:00,
2013-08-01 11:50:00,76.2,47.0,29.94,ESE,105,6.0,-999.0,36,-99.99,,,0.00,856,weatherlink.com 1.10,2013-08-01 17:50:00,
2013-08-01 12:05:00,77.1,48.0,29.93,South,185,0.0,-999.0,36,-99.99,,,0.00,926,weatherlink.com 1.10,2013-08-01 18:05:00,
2013-08-01 12:20:00,78.1,48.0,29.92,SE,124,0.0,-999.0,35,-99.99,,,0.00,891,weatherlink.com 1.10,2013-08-01 18:20:00,
2013-08-01 12:35:00,79.3,50.0,29.91,SW,214,3.0,-999.0,36,-99.99,,,0.00,902,weatherlink.com 1.10,2013-08-01 18:35:00,
2013-08-01 14:35:00,87.3,47.0,29.83,SW,225,0.0,-999.0,25,-99.99,,,0.00,882,weatherlink.com 1.10,2013-08-01 20:35:00,
2013-08-01 14:51:00,87.5,45.0,29.82,SSE,162,0.0,-999.0,23,-99.99,,,0.00,863,weatherlink.com 1.10,2013-08-01 20:51:00,
2013-08-01 15:21:00,89.9,41.0,29.80,South,175,4.0,-999.0,18,-99.99,,,0.00,823,weatherlink.com 1.10,2013-08-01 21:21:00,
2013-08-01 15:37:00,89.8,41.0,29.78,NNW,340,2.0,-999.0,18,-99.99,,,0.00,791,weatherlink.com 1.10,2013-08-01 21:37:00,
2013-08-01 15:51:00,90.9,39.0,29.77,WSW,247,3.0,-999.0,16,-99.99,,,0.00,759,weatherlink.com 1.10,2013-08-01 21:51:00,
2013-08-01 18:06:00,90.8,37.0,29.70,West,260,0.0,-999.0,15,-99.99,,,0.00,406,weatherlink.com 1.10,2013-08-02 00:06:00,
2013-08-01 18:21:00,90.1,37.0,29.70,SSE,165,5.0,-999.0,15,-99.99,,,0.00,79,weatherlink.com 1.10,2013-08-02 00:21:00,
2013-08-01 18:36:00,90.3,37.0,29.69,ESE,121,11.0,-999.0,15,-99.99,,,0.00,352,weatherlink.com 1.10,2013-08-02 00:36:00,
2013-08-01 19:06:00,83.3,46.0,29.68,South,186,19.0,-999.0,27,-99.99,,,0.00,213,weatherlink.com 1.10,2013-08-02 01:06:00,
2013-08-01 19:21:00,82.4,45.0,29.69,South,186,29.0,-999.0,27,-99.99,,,0.00,109,weatherlink.com 1.10,2013-08-02 01:21:00,
2013-08-01 19:36:00,81.8,45.0,29.69,South,188,25.0,-999.0,27,-99.99,,,0.00,72,weatherlink.com 1.10,2013-08-02 01:36:00,
2013-08-01 20:06:00,80.2,44.0,29.71,South,191,10.0,-999.0,28,-99.99,,,0.00,26,weatherlink.com 1.10,2013-08-02 02:06:00,
2013-08-01 20:21:00,79.1,45.0,29.70,SSE,167,13.0,-999.0,30,-99.99,,,0.00,11,weatherlink.com 1.10,2013-08-02 02:21:00,
2013-08-01 20:36:00,78.3,46.0,29.71,SSW,202,14.0,-999.0,32,-99.99,,,0.00,5,weatherlink.com 1.10,2013-08-02 02:36:00,
2013-08-01 20:51:00,77.8,46.0,29.71,South,191,15.0,-999.0,32,-99.99,,,0.00,0,weatherlink.com 1.10,2013-08-02 02:51:00,
2013-08-01 21:06:00,77.6,45.0,29.70,South,178,13.0,-999.0,32,-99.99,,,0.00,0,weatherlink.com 1.10,2013-08-02 03:06:00,
2013-08-01 21:21:00,77.3,45.0,29.71,SSW,198,10.0,-999.0,32,-99.99,,,0.00,0,weatherlink.com 1.10,2013-08-02 03:21:00,
2013-08-01 21:36:00,77.5,45.0,29.70,South,188,21.0,-999.0,31,-99.99,,,0.00,0,weatherlink.com 1.10,2013-08-02 03:36:00,
2013-08-01 21:51:00,76.7,45.0,29.71,SSW,205,15.0,-999.0,33,-99.99,,,0.00,0,weatherlink.com 1.10,2013-08-02 03:51:00,
2013-08-01 22:06:00,75.7,46.0,29.72,SSW,202,9.0,-999.0,35,-99.99,,,0.00,0,weatherlink.com 1.10,2013-08-02 04:06:00,
2013-08-01 22:21:00,76.0,45.0,29.71,SW,225,25.0,-999.0,33,-99.99,,,0.00,0,weatherlink.com 1.10,2013-08-02 04:21:00,
2013-08-01 22:36:00,75.7,44.0,29.71,South,181,0.0,-999.0,32,-99.99,,,0.00,0,weatherlink.com 1.10,2013-08-02 04:36:00,
2013-08-01 22:52:00,74.6,44.0,29.70,SW,225,12.0,-999.0,33,-99.99,,,0.00,0,weatherlink.com 1.10,2013-08-02 04:52:00,
2013-08-01 23:07:00,75.1,42.0,29.71,West,281,0.0,-999.0,31,-99.99,,,0.00,0,weatherlink.com 1.10,2013-08-02 05:07:00,
2013-08-01 23:21:00,74.0,41.0,29.72,SSE,164,0.0,-999.0,31,-99.99,,,0.00,0,weatherlink.com 1.10,2013-08-02 05:21:00,
2013-08-01 23:38:00,74.3,42.0,29.71,South,179,4.0,-999.0,31,-99.99,,,0.00,0,weatherlink.com 1.10,2013-08-02 05:38:00,
2013-08-01 23:52:00,73.3,42.0,29.73,SSE,148,0.0,-999.0,32,-99.99,,,0.00,0,weatherlink.com 1.10,2013-08-02 05:52:00,